Time;durP1;ratioP1;P1;durP2;ratioP2;P2;SDS_P1;SDS_P2;PMS_P1;PMS_P2;Temp;Humidity;BMP_temperature;BMP_pressure;BME280_temperature;BME280_humidity;BME280_pressure;Samples;Min_cycle;Max_cycle;Signal;HPM_P1;HPM_P2
2022/03/02 00:01:18;;;;;;;25.97;14.33;;;;;;;-0.35;100.00;99043.25;1670029;84;21070;-70
2022/03/02 00:03:47;;;;;;;26.30;15.27;;;;;;;-0.35;100.00;99041.92;1679787;85;21049;-70
2022/03/02 00:06:15;;;;;;;24.77;13.60;;;;;;;-0.35;100.00;99031.77;1647879;86;21041;-69
2022/03/02 00:08:43;;;;;;;25.17;13.63;;;;;;;-0.35;100.00;99037.94;1648319;85;21050;-70
2022/03/02 00:11:11;;;;;;;25.70;13.33;;;;;;;-0.36;100.00;99026.11;1649159;85;21038;-71
2022/03/02 00:13:39;;;;;;;24.57;13.93;;;;;;;-0.37;100.00;99033.25;1671483;85;21029;-70
2022/03/02 00:16:08;;;;;;;26.43;14.50;;;;;;;-0.37;100.00;99026.60;1647114;85;21579;-71
2022/03/02 00:18:35;;;;;;;26.37;14.73;;;;;;;-0.37;100.00;99031.91;1643862;85;21014;-70
2022/03/02 00:21:02;;;;;;;24.17;13.23;;;;;;;-0.36;100.00;99022.12;1666137;84;21042;-70
2022/03/02 00:23:36;;;;;;;24.80;14.00;;;;;;;-0.36;100.00;99022.12;1674493;85;21096;-71
2022/03/02 00:26:03;;;;;;;23.97;13.50;;;;;;;-0.36;100.00;99014.98;1675301;85;21042;-70
2022/03/02 00:28:30;;;;;;;25.57;13.77;;;;;;;-0.35;100.00;99014.50;1646781;85;21082;-70
2022/03/02 00:30:57;;;;;;;24.23;13.13;;;;;;;-0.34;100.00;99014.87;1677613;85;21090;-71
2022/03/02 00:33:24;;;;;;;25.93;13.40;;;;;;;-0.33;100.00;99010.77;1673901;85;21074;-70
2022/03/02 00:35:51;;;;;;;25.00;13.70;;;;;;;-0.32;100.00;99010.27;1648970;85;21045;-70
2022/03/02 00:38:18;;;;;;;25.23;13.40;;;;;;;-0.32;100.00;99009.80;1670891;85;21531;-71
2022/03/02 00:40:52;;;;;;;23.90;13.10;;;;;;;-0.32;100.00;99003.16;1659054;85;21433;-70
2022/03/02 00:43:21;;;;;;;23.70;13.27;;;;;;;-0.31;100.00;99001.34;1651352;85;21107;-70
2022/03/02 00:45:48;;;;;;;25.07;13.40;;;;;;;-0.31;100.00;99000.84;1666995;85;21505;-70
2022/03/02 00:48:16;;;;;;;22.33;12.47;;;;;;;-0.29;100.00;98997.57;1628637;86;21067;-71
2022/03/02 00:50:44;;;;;;;23.67;12.73;;;;;;;-0.28;100.00;98995.28;1674860;85;21071;-70
2022/03/02 00:53:12;;;;;;;24.07;12.63;;;;;;;-0.27;100.00;98991.64;1631406;85;21113;-70
2022/03/02 00:55:39;;;;;;;24.50;13.27;;;;;;;-0.26;100.00;98993.34;1674805;85;21115;-70
2022/03/02 00:58:06;;;;;;;25.10;13.10;;;;;;;-0.26;100.00;98992.02;1640599;86;21020;-70
2022/03/02 01:00:33;;;;;;;24.13;13.40;;;;;;;-0.24;100.00;98991.39;1626249;85;21173;-71
2022/03/02 01:03:00;;;;;;;24.37;13.67;;;;;;;-0.24;100.00;98991.39;1653275;85;21053;-70
2022/03/02 01:05:28;;;;;;;22.03;13.07;;;;;;;-0.24;100.00;98982.59;1621359;85;21113;-70
2022/03/02 01:07:55;;;;;;;21.60;12.17;;;;;;;-0.25;100.00;98983.09;1662347;85;21071;-71
2022/03/02 01:10:22;;;;;;;21.60;10.93;;;;;;;-0.25;100.00;98988.40;1632465;85;21058;-70
2022/03/02 01:12:56;;;;;;;21.33;11.70;;;;;;;-0.24;100.00;98985.25;1668982;85;21082;-71
2022/03/02 01:15:24;;;;;;;21.73;12.13;;;;;;;-0.24;100.00;98984.75;1638640;86;21079;-69
2022/03/02 01:17:52;;;;;;;21.93;12.07;;;;;;;-0.23;100.00;98985.13;1636931;84;21065;-70
2022/03/02 01:20:19;;;;;;;21.53;11.93;;;;;;;-0.22;100.00;98978.82;1626718;85;21148;-69
2022/03/02 01:22:46;;;;;;;20.03;10.83;;;;;;;-0.21;100.00;98979.69;1650026;85;21109;-70
2022/03/02 01:25:13;;;;;;;20.37;11.23;;;;;;;-0.18;100.00;98980.73;1669538;85;21078;-68
2022/03/02 01:27:41;;;;;;;20.93;10.30;;;;;;;-0.19;100.00;98963.13;1663960;85;21102;-70
2022/03/02 01:30:08;;;;;;;21.30;11.27;;;;;;;-0.17;100.00;98960.34;1661450;85;21126;-69
2022/03/02 01:32:35;;;;;;;19.73;10.73;;;;;;;-0.15;100.00;98960.55;1655019;85;21054;-70
2022/03/02 01:35:03;;;;;;;19.07;10.27;;;;;;;-0.15;100.00;98960.55;1674907;84;21555;-69
2022/03/02 01:37:30;;;;;;;19.43;11.10;;;;;;;-0.16;100.00;98960.68;1647664;85;21132;-70
2022/03/02 01:39:58;;;;;;;20.43;10.77;;;;;;;-0.15;100.00;98961.88;1637796;87;21096;-71
2022/03/02 01:42:25;;;;;;;19.30;10.37;;;;;;;-0.16;100.00;98958.89;1658737;86;21072;-70
2022/03/02 01:44:52;;;;;;;18.17;9.77;;;;;;;-0.17;100.00;98951.88;1641539;86;21829;-71
2022/03/02 01:47:19;;;;;;;20.10;10.20;;;;;;;-0.15;100.00;98955.73;1624520;87;21467;-70
2022/03/02 01:49:46;;;;;;;19.70;10.53;;;;;;;-0.16;100.00;98954.91;1644890;86;21105;-70
2022/03/02 01:52:13;;;;;;;19.57;10.33;;;;;;;-0.15;100.00;98949.92;1626658;87;21533;-68
2022/03/02 01:54:40;;;;;;;19.57;10.30;;;;;;;-0.15;100.00;98956.57;1658183;86;21027;-71
2022/03/02 01:57:08;;;;;;;21.73;11.10;;;;;;;-0.15;100.00;98949.92;1651175;86;21060;-70
2022/03/02 01:59:35;;;;;;;19.73;11.43;;;;;;;-0.15;100.00;98951.25;1645464;86;21100;-70
2022/03/02 02:02:02;;;;;;;20.20;10.93;;;;;;;-0.15;100.00;98944.61;1630919;87;21111;-70
2022/03/02 02:04:30;;;;;;;19.77;10.20;;;;;;;-0.15;100.00;98947.77;1651764;86;21067;-69
2022/03/02 02:06:57;;;;;;;20.07;10.70;;;;;;;-0.17;100.00;98939.92;1645168;86;21077;-70
2022/03/02 02:09:24;;;;;;;17.20;10.03;;;;;;;-0.18;100.00;98938.22;1653125;86;21049;-70
2022/03/02 02:11:51;;;;;;;16.40;9.70;;;;;;;-0.18;100.00;98938.72;1625542;87;21115;-70
2022/03/02 02:14:18;;;;;;;18.83;10.10;;;;;;;-0.20;100.00;98938.84;1660296;86;21086;-69
2022/03/02 02:16:45;;;;;;;17.93;9.70;;;;;;;-0.20;100.00;98942.33;1654115;86;21022;-70
2022/03/02 02:19:12;;;;;;;16.73;9.93;;;;;;;-0.18;100.00;98946.69;1655529;86;21054;-69
2022/03/02 02:21:39;;;;;;;17.57;10.03;;;;;;;-0.18;100.00;98940.87;1627286;87;21082;-70
2022/03/02 02:24:06;;;;;;;18.37;10.20;;;;;;;-0.17;100.00;98941.25;1650667;86;21138;-70
2022/03/02 02:26:33;;;;;;;19.50;10.77;;;;;;;-0.18;100.00;98934.23;1626049;87;21083;-69
2022/03/02 02:29:00;;;;;;;17.50;10.20;;;;;;;-0.18;100.00;98933.40;1650773;86;21070;-69
2022/03/02 02:31:28;;;;;;;16.80;9.53;;;;;;;-0.19;100.00;98933.89;1656264;86;21534;-70
2022/03/02 02:33:56;;;;;;;18.70;10.33;;;;;;;-0.20;100.00;98935.69;1656535;86;21113;-70
2022/03/02 02:36:23;;;;;;;19.03;10.10;;;;;;;-0.20;100.00;98927.72;1668142;86;21066;-69
2022/03/02 02:38:50;;;;;;;17.77;9.87;;;;;;;-0.20;100.00;98929.05;1646221;85;21536;-70
2022/03/02 02:41:18;;;;;;;17.23;9.97;;;;;;;-0.20;100.00;98925.55;1614897;85;21144;-71
2022/03/02 02:43:46;;;;;;;16.80;9.87;;;;;;;-0.21;100.00;98920.73;1654111;86;21174;-71
2022/03/02 02:46:14;;;;;;;19.50;10.50;;;;;;;-0.20;100.00;98924.23;1652670;86;21097;-70
2022/03/02 02:48:41;;;;;;;19.17;10.80;;;;;;;-0.19;100.00;98927.25;1667339;86;21075;-68
2022/03/02 02:51:08;;;;;;;19.67;10.27;;;;;;;-0.17;100.00;98924.47;1657588;86;21078;-70
2022/03/02 02:53:35;;;;;;;18.67;10.03;;;;;;;-0.18;100.00;98926.76;1643355;86;21046;-70
2022/03/02 02:56:03;;;;;;;21.30;10.70;;;;;;;-0.18;100.00;98916.13;1659709;86;21046;-68
2022/03/02 02:58:31;;;;;;;18.37;10.43;;;;;;;-0.18;100.00;98921.45;1659145;86;21491;-70
2022/03/02 03:00:58;;;;;;;18.43;9.80;;;;;;;-0.17;100.00;98917.83;1644996;86;21562;-70
2022/03/02 03:03:25;;;;;;;17.47;9.60;;;;;;;-0.16;100.00;98916.84;1643023;86;21098;-69
2022/03/02 03:05:52;;;;;;;18.73;9.67;;;;;;;-0.17;100.00;98923.98;1611580;86;21058;-71
2022/03/02 03:08:19;;;;;;;18.50;10.03;;;;;;;-0.17;100.00;98915.17;1653776;86;21072;-70
2022/03/02 03:10:47;;;;;;;16.87;9.50;;;;;;;-0.16;100.00;98908.87;1654715;86;21062;-70
2022/03/02 03:13:16;;;;;;;19.93;10.97;;;;;;;-0.16;100.00;98907.53;1656165;86;21042;-70
2022/03/02 03:15:44;;;;;;;19.00;10.53;;;;;;;-0.16;100.00;98911.52;1654208;86;21657;-71
2022/03/02 03:18:11;;;;;;;19.23;9.83;;;;;;;-0.15;100.00;98907.91;1650837;86;21626;-70
2022/03/02 03:20:38;;;;;;;18.63;9.93;;;;;;;-0.16;100.00;98903.55;1653822;85;21071;-69
2022/03/02 03:23:06;;;;;;;17.37;9.67;;;;;;;-0.16;100.00;98900.89;1649832;86;21078;-70
2022/03/02 03:25:33;;;;;;;19.00;9.73;;;;;;;-0.16;100.00;98907.53;1662509;86;21535;-71
2022/03/02 03:28:00;;;;;;;17.30;10.13;;;;;;;-0.16;100.00;98902.22;1660091;86;21603;-70
2022/03/02 03:30:28;;;;;;;16.50;9.87;;;;;;;-0.17;100.00;98897.41;1637847;86;21523;-70
2022/03/02 03:32:55;;;;;;;16.17;9.07;;;;;;;-0.16;100.00;98897.78;1630894;86;21014;-70
2022/03/02 03:35:23;;;;;;;19.37;10.33;;;;;;;-0.16;100.00;98897.78;1623578;86;21075;-70
2022/03/02 03:37:50;;;;;;;18.23;9.73;;;;;;;-0.17;100.00;98894.75;1641609;86;21114;-70
2022/03/02 03:40:17;;;;;;;18.50;10.43;;;;;;;-0.18;100.00;98890.89;1621982;85;21116;-69
2022/03/02 03:42:45;;;;;;;17.73;9.83;;;;;;;-0.20;100.00;98891.84;1666299;85;21121;-71
2022/03/02 03:45:12;;;;;;;19.27;10.93;;;;;;;-0.22;100.00;98891.14;1647649;85;21058;-69
2022/03/02 03:47:40;;;;;;;17.57;10.33;;;;;;;-0.23;100.00;98886.82;1645561;85;21068;-71
2022/03/02 03:50:15;;;;;;;17.97;10.17;;;;;;;-0.22;100.00;98891.64;1646386;85;21058;-71
2022/03/02 03:52:42;;;;;;;16.97;9.97;;;;;;;-0.23;100.00;98895.25;1671499;85;21080;-70
2022/03/02 03:55:10;;;;;;;18.27;10.27;;;;;;;-0.23;100.00;98888.61;1665768;85;21582;-71
2022/03/02 03:57:37;;;;;;;18.13;10.10;;;;;;;-0.24;100.00;98884.29;1669613;85;21562;-70
2022/03/02 04:00:09;;;;;;;18.00;10.03;;;;;;;-0.23;100.00;98892.59;1671596;85;21023;-70
2022/03/02 04:02:36;;;;;;;17.57;10.33;;;;;;;-0.23;100.00;98892.59;1612857;87;21057;-71
2022/03/02 04:05:04;;;;;;;17.37;10.33;;;;;;;-0.23;100.00;98885.49;1613582;87;21038;-70
2022/03/02 04:07:31;;;;;;;17.90;9.90;;;;;;;-0.22;100.00;98886.33;1610554;87;21081;-70
2022/03/02 04:09:58;;;;;;;19.73;10.83;;;;;;;-0.22;100.00;98878.36;1597074;88;21014;-69
2022/03/02 04:12:26;;;;;;;18.07;10.27;;;;;;;-0.20;100.00;98881.72;1578529;88;21086;-70
2022/03/02 04:14:55;;;;;;;18.47;10.53;;;;;;;-0.20;100.00;98881.72;1604392;86;21143;-70
2022/03/02 04:17:23;;;;;;;17.17;9.37;;;;;;;-0.19;100.00;98872.79;1614857;86;21061;-70
2022/03/02 04:19:52;;;;;;;17.17;9.97;;;;;;;-0.18;100.00;98878.94;1585777;88;21049;-71
2022/03/02 04:22:20;;;;;;;15.07;8.37;;;;;;;-0.20;100.00;98877.23;1556089;87;21084;-70
2022/03/02 04:24:47;;;;;;;16.57;9.10;;;;;;;-0.18;100.00;98878.44;1598053;88;20998;-70
2022/03/02 04:27:14;;;;;;;14.60;8.23;;;;;;;-0.16;100.00;98876.98;1605906;87;21088;-70
2022/03/02 04:29:41;;;;;;;16.53;8.90;;;;;;;-0.15;100.00;98876.86;1593172;89;21121;-70
2022/03/02 04:32:09;;;;;;;15.77;8.40;;;;;;;-0.14;100.00;98876.36;1593796;90;21006;-70
2022/03/02 04:34:36;;;;;;;15.77;8.50;;;;;;;-0.15;100.00;98876.86;1598642;87;21100;-70
2022/03/02 04:37:04;;;;;;;15.93;8.40;;;;;;;-0.16;100.00;98879.17;1562247;90;21109;-71
2022/03/02 04:39:31;;;;;;;15.67;9.03;;;;;;;-0.16;100.00;98873.86;1597685;87;21068;-71
2022/03/02 04:41:58;;;;;;;15.80;8.83;;;;;;;-0.14;100.00;98881.67;1608911;87;21207;-70
2022/03/02 04:44:25;;;;;;;17.40;8.90;;;;;;;-0.15;100.00;98890.14;1610566;89;20989;-72
2022/03/02 04:46:52;;;;;;;16.20;8.83;;;;;;;-0.15;100.00;98886.16;1593836;90;21081;-70
2022/03/02 04:49:19;;;;;;;15.93;8.87;;;;;;;-0.14;100.00;98886.98;1624064;86;21080;-69
2022/03/02 04:51:47;;;;;;;14.77;8.60;;;;;;;-0.14;100.00;98887.85;1579432;90;21120;-71
2022/03/02 04:57:04;;;;;;;16.13;9.30;;;;;;;-0.13;100.00;98891.34;1613073;86;21057;-70
2022/03/02 04:59:31;;;;;;;16.57;9.60;;;;;;;-0.14;100.00;98889.64;1612772;86;21964;-70
2022/03/02 05:01:58;;;;;;;16.17;8.77;;;;;;;-0.16;100.00;98891.13;1628770;86;21049;-71
2022/03/02 05:04:26;;;;;;;17.87;9.90;;;;;;;-0.15;100.00;98889.31;1631919;86;21061;-70
2022/03/02 05:06:53;;;;;;;15.43;8.93;;;;;;;-0.16;100.00;98896.45;1609959;87;21034;-70
2022/03/02 05:09:20;;;;;;;15.97;8.67;;;;;;;-0.16;100.00;98894.25;1633456;86;21006;-71
2022/03/02 05:11:47;;;;;;;15.97;9.10;;;;;;;-0.17;100.00;98897.91;1613281;87;21051;-70
2022/03/02 05:14:16;;;;;;;16.30;9.33;;;;;;;-0.17;100.00;98898.73;1632994;86;21098;-70
2022/03/02 05:16:43;;;;;;;16.13;9.10;;;;;;;-0.17;100.00;98897.41;1631860;87;21606;-70
2022/03/02 05:19:10;;;;;;;17.20;8.70;;;;;;;-0.16;100.00;98904.88;1632409;86;21077;-71
2022/03/02 05:21:38;;;;;;;15.67;8.53;;;;;;;-0.14;100.00;98903.80;1632390;85;21546;-70
2022/03/02 05:24:06;;;;;;;15.03;8.50;;;;;;;-0.14;100.00;98903.80;1635004;87;21108;-69
2022/03/02 05:26:33;;;;;;;16.47;8.77;;;;;;;-0.11;100.00;98911.48;1609198;88;21083;-70
2022/03/02 05:29:00;;;;;;;15.07;8.47;;;;;;;-0.11;100.00;98906.66;1631266;87;21613;-71
2022/03/02 05:31:30;;;;;;;15.77;9.37;;;;;;;-0.07;100.00;98913.39;1633618;87;21184;-71
2022/03/02 05:33:57;;;;;;;16.37;9.27;;;;;;;-0.08;100.00;98905.91;1613514;86;21049;-71
2022/03/02 05:36:25;;;;;;;18.03;10.27;;;;;;;-0.08;100.00;98906.41;1623464;86;21113;-71
2022/03/02 05:38:53;;;;;;;15.97;9.47;;;;;;;-0.08;100.00;98910.39;1634181;86;21014;-72
2022/03/02 05:41:21;;;;;;;16.13;9.13;;;;;;;-0.09;100.00;98904.71;1630758;86;21099;-70
2022/03/02 05:43:48;;;;;;;18.20;10.03;;;;;;;-0.09;100.00;98906.91;1651570;85;21108;-71
2022/03/02 05:46:15;;;;;;;16.67;9.07;;;;;;;-0.08;100.00;98901.93;1650837;85;21548;-71
2022/03/02 05:48:42;;;;;;;16.83;9.20;;;;;;;-0.08;100.00;98903.25;1667329;85;21073;-71
2022/03/02 05:51:09;;;;;;;16.50;8.70;;;;;;;-0.07;100.00;98900.97;1637044;87;21049;-70
2022/03/02 05:53:36;;;;;;;16.13;9.27;;;;;;;-0.06;100.00;98901.30;1636836;87;21010;-71
2022/03/02 05:56:06;;;;;;;17.43;9.57;;;;;;;-0.05;100.00;98903.50;1636784;86;21465;-71
2022/03/02 05:58:34;;;;;;;17.30;9.60;;;;;;;-0.04;100.00;98907.83;1655866;86;21124;-70
2022/03/02 06:01:01;;;;;;;18.47;10.30;;;;;;;-0.02;100.00;98903.21;1636833;85;21040;-71
2022/03/02 06:03:28;;;;;;;19.00;11.00;;;;;;;0.00;100.00;98899.96;1655830;86;21089;-70
2022/03/02 06:05:56;;;;;;;18.73;10.90;;;;;;;-0.02;100.00;98905.41;1655662;85;21054;-70
2022/03/02 06:08:24;;;;;;;18.80;10.30;;;;;;;-0.02;100.00;98904.08;1636727;86;21053;-71
2022/03/02 06:10:53;;;;;;;19.33;10.70;;;;;;;-0.01;100.00;98903.58;1655643;86;21089;-71
2022/03/02 06:13:21;;;;;;;18.53;10.40;;;;;;;-0.02;100.00;98900.09;1636869;86;21053;-70
2022/03/02 06:15:50;;;;;;;17.57;10.13;;;;;;;0.01;100.00;98898.14;1655830;86;21053;-71
2022/03/02 06:18:20;;;;;;;18.80;10.03;;;;;;;0.01;100.00;98895.48;1655555;86;21073;-70
2022/03/02 06:20:50;;;;;;;18.47;10.17;;;;;;;0.02;100.00;98902.00;1655667;86;21514;-69
2022/03/02 06:23:21;;;;;;;19.23;10.33;;;;;;;0.03;100.00;98907.65;1655907;86;21093;-71
2022/03/02 06:25:48;;;;;;;19.97;10.80;;;;;;;0.03;100.00;98908.14;1655567;86;21033;-70
2022/03/02 06:28:16;;;;;;;20.73;11.20;;;;;;;0.03;100.00;98893.03;1637179;86;21551;-70
2022/03/02 06:30:49;;;;;;;19.33;10.83;;;;;;;0.03;100.00;98896.19;1656868;85;21086;-71
2022/03/02 06:33:21;;;;;;;24.50;15.23;;;;;;;0.04;100.00;98901.87;1636848;86;21051;-70
2022/03/02 06:35:50;;;;;;;19.70;11.43;;;;;;;0.04;100.00;98894.73;1655567;85;21069;-70
2022/03/02 06:38:17;;;;;;;20.23;11.63;;;;;;;0.06;100.00;98901.25;1655684;86;21014;-70
2022/03/02 06:41:04;;;;;;;19.47;11.17;;;;;;;0.06;100.00;98895.44;1655772;86;21602;-70
2022/03/02 06:43:38;;;;;;;18.70;10.60;;;;;;;0.08;100.00;98892.16;1611009;87;21238;-70
2022/03/02 06:46:12;;;;;;;20.83;11.27;;;;;;;0.10;100.00;98896.02;1611068;86;21018;-71
2022/03/02 06:48:57;;;;;;;21.33;11.70;;;;;;;0.10;100.00;98895.52;1632634;86;21147;-70
2022/03/02 06:51:26;;;;;;;20.40;11.57;;;;;;;0.10;100.00;98888.87;1560626;90;21579;-70
2022/03/02 06:53:55;;;;;;;20.27;11.27;;;;;;;0.11;100.00;98886.58;1521758;93;21189;-70
2022/03/02 06:56:22;;;;;;;21.27;12.03;;;;;;;0.13;100.00;98892.59;1571916;90;21077;-70
2022/03/02 06:58:55;;;;;;;21.07;11.30;;;;;;;0.13;100.00;98887.78;1537986;93;21074;-70
2022/03/02 07:01:29;;;;;;;20.17;11.30;;;;;;;0.15;100.00;98885.83;1581801;90;21181;-73
2022/03/02 07:04:02;;;;;;;20.30;10.80;;;;;;;0.15;100.00;98877.35;1549468;90;21110;-72
2022/03/02 07:06:30;;;;;;;21.50;11.43;;;;;;;0.16;100.00;98885.70;1587825;90;21095;-72
2022/03/02 07:08:57;;;;;;;19.20;10.80;;;;;;;0.18;100.00;98886.89;1558797;90;21147;-72
2022/03/02 07:11:25;;;;;;;20.43;10.93;;;;;;;0.20;100.00;98884.11;1539702;92;21152;-71
2022/03/02 07:13:52;;;;;;;21.90;11.90;;;;;;;0.20;100.00;98880.95;1557995;90;21848;-70
2022/03/02 07:16:21;;;;;;;21.33;12.10;;;;;;;0.23;100.00;98882.02;1576324;90;21158;-70
2022/03/02 07:18:50;;;;;;;21.27;12.30;;;;;;;0.26;100.00;98879.57;1556375;90;21050;-70
2022/03/02 07:21:17;;;;;;;21.73;11.90;;;;;;;0.29;100.00;98876.16;1556818;91;21061;-71
2022/03/02 07:23:54;;;;;;;20.33;11.30;;;;;;;0.32;100.00;98880.34;1555016;90;21121;-70
2022/03/02 07:26:22;;;;;;;21.80;12.00;;;;;;;0.34;100.00;98873.11;1557659;91;21638;-70
2022/03/02 07:28:49;;;;;;;22.57;13.07;;;;;;;0.33;100.00;98869.58;1551356;91;21086;-72
2022/03/02 07:31:18;;;;;;;22.93;12.57;;;;;;;0.36;100.00;98858.69;1542698;93;21085;-71
2022/03/02 07:33:45;;;;;;;23.10;13.50;;;;;;;0.38;100.00;98859.39;1501717;93;21577;-70
2022/03/02 07:36:13;;;;;;;23.67;13.20;;;;;;;0.40;100.00;98851.28;1522210;91;21044;-73
2022/03/02 07:38:40;;;;;;;23.20;12.63;;;;;;;0.41;100.00;98843.66;1544628;90;21109;-69
2022/03/02 07:41:08;;;;;;;21.90;12.63;;;;;;;0.42;100.00;98846.66;1551114;90;21673;-70
2022/03/02 07:43:37;;;;;;;22.63;12.13;;;;;;;0.45;100.00;98844.23;1551577;90;21115;-72
2022/03/02 07:46:09;;;;;;;21.70;12.03;;;;;;;0.46;100.00;98832.13;1574023;90;21020;-71
2022/03/02 07:48:37;;;;;;;22.13;12.43;;;;;;;0.48;100.00;98833.30;1605399;87;21025;-70
2022/03/02 07:51:07;;;;;;;22.00;13.30;;;;;;;0.51;100.00;98829.91;1594358;88;21066;-70
2022/03/02 07:53:42;;;;;;;24.10;12.23;;;;;;;0.53;100.00;98817.31;1572230;89;21117;-72
2022/03/02 07:56:10;;;;;;;24.23;13.10;;;;;;;0.58;100.00;98820.87;1635289;86;21040;-70
2022/03/02 07:58:40;;;;;;;24.47;13.00;;;;;;;0.60;100.00;98811.42;1634709;86;21035;-72
2022/03/02 08:01:08;;;;;;;22.77;12.37;;;;;;;0.62;100.00;98802.34;1658836;86;21027;-71
2022/03/02 08:03:38;;;;;;;21.83;11.80;;;;;;;0.66;100.00;98794.92;1652211;86;21058;-70
2022/03/02 08:06:06;;;;;;;22.83;12.07;;;;;;;0.69;100.00;98795.95;1651544;87;21556;-70
2022/03/02 08:08:35;;;;;;;20.03;11.50;;;;;;;0.71;100.00;98787.38;1651107;87;21064;-70
2022/03/02 08:11:04;;;;;;;19.63;11.37;;;;;;;0.70;100.00;98786.51;1651646;85;21075;-70
2022/03/02 08:13:35;;;;;;;20.50;11.80;;;;;;;0.69;100.00;98779.52;1651612;86;21071;-72
2022/03/02 08:16:04;;;;;;;19.80;11.40;;;;;;;0.68;100.00;98772.52;1632105;87;21650;-70
2022/03/02 08:18:31;;;;;;;18.73;10.70;;;;;;;0.68;100.00;98773.84;1632167;87;21094;-70
2022/03/02 08:20:58;;;;;;;18.67;10.40;;;;;;;0.71;100.00;98767.42;1651039;87;21130;-69
2022/03/02 08:23:29;;;;;;;18.83;9.50;;;;;;;0.72;100.00;98769.91;1666438;84;21034;-71
2022/03/02 08:25:56;;;;;;;16.70;9.27;;;;;;;0.76;100.00;98767.81;1619703;87;21032;-70
2022/03/02 08:28:24;;;;;;;17.17;9.10;;;;;;;0.81;100.00;98763.41;1636383;87;21096;-70
2022/03/02 08:30:53;;;;;;;17.50;9.57;;;;;;;0.84;100.00;98755.16;1628624;87;21044;-70
2022/03/02 08:33:27;;;;;;;19.17;10.03;;;;;;;0.87;100.00;98753.05;1644570;87;21030;-70
2022/03/02 08:35:51;;;;;;;18.90;10.33;;;;;;;0.89;100.00;98750.25;1564995;90;21627;-70
2022/03/02 08:38:18;;;;;;;17.73;9.70;;;;;;;0.93;100.00;98754.30;1583063;89;21034;-69
2022/03/02 08:40:46;;;;;;;17.37;10.13;;;;;;;0.96;100.00;98751.37;1567308;90;21055;-72
2022/03/02 08:43:16;;;;;;;20.67;11.23;;;;;;;0.99;100.00;98739.59;1579289;89;21062;-71
2022/03/02 08:45:50;;;;;;;19.80;11.00;;;;;;;1.02;100.00;98738.81;1570714;89;21205;-69
2022/03/02 08:48:19;;;;;;;20.80;11.47;;;;;;;1.06;100.00;98735.37;1564335;90;21102;-71
2022/03/02 08:50:46;;;;;;;19.47;10.77;;;;;;;1.08;100.00;98740.05;1559902;90;21057;-72
2022/03/02 08:53:14;;;;;;;20.27;11.37;;;;;;;1.11;100.00;98731.80;1540268;91;21028;-72
2022/03/02 08:55:41;;;;;;;23.23;12.07;;;;;;;1.14;100.00;98735.51;1530299;91;21035;-68
2022/03/02 08:58:09;;;;;;;21.97;11.40;;;;;;;1.18;100.00;98728.08;1514679;93;21145;-71
2022/03/02 09:00:38;;;;;;;21.07;11.13;;;;;;;1.21;100.00;98726.47;1552213;91;21073;-69
2022/03/02 09:03:04;;;;;;;20.10;10.83;;;;;;;1.26;100.00;98720.22;1521698;92;21069;-71
2022/03/02 09:05:32;;;;;;;19.93;11.83;;;;;;;1.30;100.00;98714.94;1548684;92;21393;-70
2022/03/02 09:08:00;;;;;;;21.63;11.67;;;;;;;1.34;100.00;98716.32;1526134;91;21183;-69
2022/03/02 09:10:29;;;;;;;21.80;12.87;;;;;;;1.39;100.00;98714.56;1535770;92;21091;-69
2022/03/02 09:12:59;;;;;;;18.20;10.20;;;;;;;1.43;100.00;98706.63;1541081;92;21075;-72
2022/03/02 09:15:28;;;;;;;20.47;11.23;;;;;;;1.49;100.00;98703.40;1589417;90;21700;-72
2022/03/02 09:17:55;;;;;;;20.13;10.67;;;;;;;1.52;100.00;98693.76;1537480;92;21160;-71
2022/03/02 09:20:23;;;;;;;20.20;10.80;;;;;;;1.58;100.00;98689.69;1533488;92;21160;-74
2022/03/02 09:22:52;;;;;;;20.87;10.87;;;;;;;1.62;100.00;98685.23;1539871;90;21109;-72
2022/03/02 09:25:19;;;;;;;20.57;11.07;;;;;;;1.67;100.00;98673.64;1550701;90;21158;-72
2022/03/02 09:27:46;;;;;;;19.80;10.83;;;;;;;1.70;100.00;98669.36;1528355;92;21690;-71
2022/03/02 09:30:13;;;;;;;18.57;10.20;;;;;;;1.77;100.00;98666.09;1549013;90;21075;-71
2022/03/02 09:32:41;;;;;;;20.47;11.30;;;;;;;1.80;100.00;98661.80;1555249;90;21626;-70
2022/03/02 09:35:14;;;;;;;20.47;11.00;;;;;;;1.83;100.00;98659.67;1535032;90;21558;-71
2022/03/02 09:37:49;;;;;;;19.40;10.60;;;;;;;1.84;100.00;98649.38;1488307;93;21053;-70
2022/03/02 09:40:24;;;;;;;19.33;10.80;;;;;;;1.85;100.00;98652.36;1516823;91;21142;-71
2022/03/02 09:43:00;;;;;;;19.97;10.90;;;;;;;1.87;100.00;98641.05;1536847;91;21153;-70
2022/03/02 09:45:29;;;;;;;18.77;10.20;;;;;;;1.94;100.00;98632.47;1531338;94;21576;-71
2022/03/02 09:47:58;;;;;;;16.23;8.70;;;;;;;1.98;100.00;98621.84;1546990;90;21094;-72
2022/03/02 09:50:31;;;;;;;15.13;8.43;;;;;;;2.05;100.00;98613.11;1552099;89;21129;-72
2022/03/02 09:53:08;;;;;;;17.87;8.83;;;;;;;2.10;100.00;98608.63;1545962;90;21133;-71
2022/03/02 09:55:35;;;;;;;14.73;7.67;;;;;;;2.20;100.00;98596.06;1521251;90;21069;-70
2022/03/02 09:58:03;;;;;;;15.07;7.90;;;;;;;2.25;100.00;98591.11;1498938;93;21109;-70
2022/03/02 10:00:30;;;;;;;15.83;8.03;;;;;;;2.30;100.00;98594.63;1527240;92;21128;-71
2022/03/02 10:02:59;;;;;;;16.40;8.23;;;;;;;2.34;100.00;98592.02;1504043;94;21106;-70
2022/03/02 10:05:32;;;;;;;15.83;8.00;;;;;;;2.36;100.00;98584.70;1485432;95;21098;-72
2022/03/02 10:08:10;;;;;;;15.03;7.70;;;;;;;2.39;100.00;98575.06;1493127;94;21212;-71
2022/03/02 10:10:39;;;;;;;16.77;8.20;;;;;;;2.40;100.00;98577.22;1517613;91;21142;-72
2022/03/02 10:13:09;;;;;;;17.17;8.23;;;;;;;2.43;100.00;98571.08;1498219;93;21180;-72
2022/03/02 10:15:37;;;;;;;14.63;7.60;;;;;;;2.44;100.00;98567.91;1535563;92;21102;-70
2022/03/02 10:18:07;;;;;;;14.13;7.60;;;;;;;2.45;100.00;98566.92;1542656;90;21162;-72
2022/03/02 10:20:36;;;;;;;13.20;7.30;;;;;;;2.45;100.00;98564.26;1533505;89;21086;-71
2022/03/02 10:23:14;;;;;;;14.30;6.80;;;;;;;2.43;100.00;98571.08;1539625;89;21133;-72
2022/03/02 10:26:02;;;;;;;12.50;7.03;;;;;;;2.41;100.00;98572.24;1518941;90;21110;-71
2022/03/02 10:28:44;;;;;;;15.77;7.23;;;;;;;2.39;100.00;98568.39;1526827;91;21083;-70
2022/03/02 10:31:36;;;;;;;12.60;6.17;;;;;;;2.39;100.00;98563.06;1521620;91;21083;-73
2022/03/02 10:34:28;;;;;;;13.30;7.03;;;;;;;2.39;100.00;98564.86;1546277;89;21063;-72
2022/03/02 10:37:24;;;;;;;13.98;6.83;;;;;;;2.35;100.00;98553.67;1526978;92;21056;-71
2022/03/02 10:42:55;;;;;;;12.23;7.00;;;;;;;2.37;100.00;98562.34;1531620;92;21071;-67
2022/03/02 10:45:29;;;;;;;14.83;7.13;;;;;;;2.38;100.00;98565.88;1518167;92;21068;-66
2022/03/02 10:48:01;;;;;;;12.77;6.67;;;;;;;2.38;100.00;98556.54;1539245;92;21139;-66
2022/03/02 10:50:32;;;;;;;13.07;6.60;;;;;;;2.40;100.00;98559.88;1532675;92;21072;-66
2022/03/02 10:52:59;;;;;;;13.37;6.67;;;;;;;2.42;100.00;98557.39;1538034;92;21132;-70
2022/03/02 10:55:26;;;;;;;13.40;6.77;;;;;;;2.43;100.00;98552.41;1553623;92;21142;-72
2022/03/02 10:57:55;;;;;;;12.23;6.33;;;;;;;2.46;100.00;98552.58;1554398;92;21592;-71
2022/03/02 11:00:23;;;;;;;13.77;6.73;;;;;;;2.50;100.00;98541.09;1553455;92;21083;-71
2022/03/02 11:02:56;;;;;;;14.17;6.97;;;;;;;2.53;100.00;98544.28;1561832;91;21094;-72
2022/03/02 11:05:21;;;;;;;12.20;6.47;;;;;;;2.57;100.00;98537.66;1535936;92;21176;-72
2022/03/02 11:07:48;;;;;;;11.23;6.00;;;;;;;2.61;100.00;98536.34;1536818;92;21128;-71
2022/03/02 11:10:20;;;;;;;12.10;6.27;;;;;;;2.64;100.00;98533.38;1553539;92;21214;-70
2022/03/02 11:12:52;;;;;;;14.23;6.97;;;;;;;2.66;100.00;98517.20;1540112;92;21144;-68
2022/03/02 11:15:27;;;;;;;13.20;6.33;;;;;;;2.71;100.00;98520.72;1547885;92;21156;-72
2022/03/02 11:17:58;;;;;;;13.10;6.60;;;;;;;2.73;100.00;98511.58;1537487;92;21607;-71
2022/03/02 11:20:29;;;;;;;16.73;7.80;;;;;;;2.76;100.00;98511.73;1569902;91;21056;-72
2022/03/02 11:23:04;;;;;;;12.80;7.03;;;;;;;2.78;100.00;98510.60;1554961;91;21072;-72
2022/03/02 11:25:49;;;;;;;12.80;7.53;;;;;;;2.81;100.00;98508.09;1560076;91;21560;-73
2022/03/02 11:28:18;;;;;;;13.87;7.40;;;;;;;2.85;100.00;98498.77;1524765;93;21093;-71
2022/03/02 11:30:54;;;;;;;15.80;7.90;;;;;;;2.87;100.00;98499.47;1492410;95;21097;-71